Time;durP1;ratioP1;P1;durP2;ratioP2;P2;SDS_P1;SDS_P2;PMS_P1;PMS_P2;Temp;Humidity;BMP_temperature;BMP_pressure;BME280_temperature;BME280_humidity;BME280_pressure;Samples;Min_cycle;Max_cycle;Signal;HPM_P1;HPM_P2
2021/11/13 00:02:18;;;;;;;42.08;21.48;;;5.20;99.90;;;;;;5014734;28;20537;-82
2021/11/13 00:04:46;;;;;;;36.47;21.42;;;5.10;99.90;;;;;;5020711;28;20383;-82
2021/11/13 00:07:12;;;;;;;46.50;25.17;;;5.10;99.90;;;;;;5010976;28;20250;-82
2021/11/13 00:09:40;;;;;;;50.80;23.85;;;5.10;99.90;;;;;;5003534;28;20201;-80
2021/11/13 00:12:08;;;;;;;43.83;24.33;;;5.00;99.90;;;;;;5021262;28;20281;-82
2021/11/13 00:14:35;;;;;;;49.40;26.08;;;5.00;99.90;;;;;;5015539;28;20259;-82
2021/11/13 00:17:03;;;;;;;50.40;24.40;;;5.00;99.90;;;;;;5018852;28;20445;-83
2021/11/13 00:19:30;;;;;;;46.63;26.80;;;5.00;99.90;;;;;;5016592;28;20253;-82
2021/11/13 00:21:58;;;;;;;58.28;27.95;;;5.10;99.90;;;;;;5020157;28;20226;-84
2021/11/13 00:24:26;;;;;;;43.03;24.75;;;5.10;99.90;;;;;;5003447;28;20254;-82
2021/11/13 00:26:53;;;;;;;58.72;28.60;;;5.10;99.90;;;;;;5020329;28;20230;-82
2021/11/13 00:29:20;;;;;;;44.08;25.42;;;5.20;99.90;;;;;;5020003;28;20207;-84
2021/11/13 00:31:49;;;;;;;49.45;25.33;;;5.20;99.90;;;;;;5020350;28;20294;-83
2021/11/13 00:34:17;;;;;;;51.88;25.60;;;5.10;99.90;;;;;;5020008;28;20199;-82
2021/11/13 00:36:44;;;;;;;54.00;27.35;;;5.20;99.90;;;;;;5020424;28;20427;-82
2021/11/13 00:39:11;;;;;;;59.17;24.80;;;5.20;99.90;;;;;;5018849;28;20205;-80
2021/11/13 00:41:39;;;;;;;52.10;26.98;;;5.30;99.90;;;;;;5020473;28;20406;-83
2021/11/13 00:44:06;;;;;;;45.05;22.77;;;5.20;99.90;;;;;;5019691;28;20254;-83
2021/11/13 00:46:33;;;;;;;46.80;26.25;;;5.20;99.90;;;;;;5020499;28;20208;-82
2021/11/13 00:49:01;;;;;;;49.60;25.10;;;5.20;99.90;;;;;;5020563;28;20207;-82
2021/11/13 00:51:28;;;;;;;48.00;25.50;;;5.20;99.90;;;;;;5020408;28;20225;-82
2021/11/13 00:53:55;;;;;;;42.55;23.27;;;5.30;99.90;;;;;;5016562;28;20243;-82
2021/11/13 00:56:23;;;;;;;47.22;25.77;;;5.30;99.90;;;;;;5021214;28;20253;-82
2021/11/13 00:58:50;;;;;;;41.40;24.50;;;5.20;99.90;;;;;;5019150;28;20258;-82
2021/11/13 01:01:18;;;;;;;45.42;24.52;;;5.20;99.90;;;;;;5020958;28;20208;-82
2021/11/13 01:03:45;;;;;;;54.90;22.80;;;5.20;99.90;;;;;;5004758;28;20389;-84
2021/11/13 01:06:12;;;;;;;46.00;24.13;;;5.20;99.90;;;;;;5003509;28;20216;-83
2021/11/13 01:08:40;;;;;;;44.28;27.67;;;5.20;99.90;;;;;;5002757;28;20208;-84
2021/11/13 01:11:08;;;;;;;53.70;24.67;;;5.10;99.90;;;;;;5002675;28;20554;-83
2021/11/13 01:13:35;;;;;;;49.92;27.40;;;5.20;99.90;;;;;;5002334;28;20263;-83
2021/11/13 01:16:03;;;;;;;59.35;28.95;;;5.10;99.90;;;;;;5003367;28;20201;-84
2021/11/13 01:18:30;;;;;;;48.90;26.40;;;5.00;99.90;;;;;;5020559;28;20200;-85
2021/11/13 01:20:58;;;;;;;54.05;25.83;;;5.00;99.90;;;;;;5003300;28;20254;-85
2021/11/13 01:23:25;;;;;;;62.05;28.17;;;5.00;99.90;;;;;;5012556;28;20204;-84
2021/11/13 01:25:52;;;;;;;54.50;27.35;;;5.00;99.90;;;;;;5004521;28;20261;-84
2021/11/13 01:28:19;;;;;;;54.70;27.50;;;4.90;99.90;;;;;;5024667;28;20209;-82
2021/11/13 01:30:48;;;;;;;50.30;27.58;;;4.90;99.90;;;;;;5023591;28;20225;-83
2021/11/13 01:33:15;;;;;;;44.40;28.80;;;4.90;99.90;;;;;;5007104;28;20379;-83
2021/11/13 01:35:43;;;;;;;53.65;27.80;;;4.90;99.90;;;;;;5022557;28;20249;-84
2021/11/13 01:38:11;;;;;;;57.03;27.55;;;4.90;99.90;;;;;;5017641;28;20275;-82
2021/11/13 01:40:38;;;;;;;56.80;29.02;;;4.90;99.90;;;;;;5024381;28;20587;-84
2021/11/13 01:43:06;;;;;;;59.88;31.88;;;4.90;99.90;;;;;;5017587;28;20499;-83
2021/11/13 01:45:33;;;;;;;65.43;31.52;;;4.80;99.90;;;;;;5018293;28;20282;-81
2021/11/13 01:48:01;;;;;;;68.05;33.53;;;4.70;99.90;;;;;;5015698;28;20199;-84
2021/11/13 01:50:40;;;;;;;80.25;34.33;;;4.80;99.90;;;;;;5023789;28;20527;-82
2021/11/13 01:53:10;;;;;;;66.30;30.90;;;4.70;99.90;;;;;;5022171;28;20440;-82
2021/11/13 01:55:37;;;;;;;69.00;31.38;;;4.70;99.90;;;;;;5023477;28;20201;-83
2021/11/13 01:58:12;;;;;;;78.72;33.38;;;4.70;99.90;;;;;;5023549;28;20197;-82
2021/11/13 02:00:47;;;;;;;71.32;33.58;;;4.70;99.90;;;;;;5007706;28;20223;-83
2021/11/13 02:03:15;;;;;;;64.28;33.90;;;4.70;99.90;;;;;;5017571;28;20214;-82
2021/11/13 02:05:42;;;;;;;68.10;34.58;;;4.70;99.90;;;;;;5024723;28;20253;-83
2021/11/13 02:08:09;;;;;;;89.38;37.00;;;4.60;99.90;;;;;;5024576;28;20203;-81
2021/11/13 02:10:36;;;;;;;87.20;38.97;;;4.50;99.90;;;;;;5025123;28;20249;-81
2021/11/13 02:13:04;;;;;;;88.07;43.83;;;4.60;99.90;;;;;;5024220;28;20252;-83
2021/11/13 02:15:32;;;;;;;72.93;39.35;;;4.60;99.90;;;;;;5020184;28;20250;-82
2021/11/13 02:18:00;;;;;;;77.95;40.33;;;4.60;99.90;;;;;;5015668;28;20213;-82
2021/11/13 02:20:31;;;;;;;75.45;39.58;;;4.50;99.90;;;;;;5026315;28;20487;-81
2021/11/13 02:23:01;;;;;;;92.60;41.67;;;4.60;99.90;;;;;;5024608;28;20253;-81
2021/11/13 02:25:30;;;;;;;84.18;39.17;;;4.40;99.90;;;;;;5007557;28;20443;-82
2021/11/13 02:27:59;;;;;;;86.25;41.25;;;4.50;99.90;;;;;;5025064;28;20210;-82
2021/11/13 02:30:26;;;;;;;87.97;42.45;;;4.50;99.90;;;;;;5025649;28;20240;-80
2021/11/13 02:32:55;;;;;;;89.22;40.35;;;4.40;99.90;;;;;;5022362;28;20202;-83
2021/11/13 02:35:25;;;;;;;86.43;41.25;;;4.50;99.90;;;;;;5023909;28;20202;-81
2021/11/13 02:37:53;;;;;;;81.53;40.25;;;4.40;99.90;;;;;;5001883;28;20490;-80
2021/11/13 02:40:21;;;;;;;83.32;41.80;;;4.50;99.90;;;;;;5015790;28;20229;-80
2021/11/13 02:42:50;;;;;;;96.50;40.08;;;4.50;99.90;;;;;;5022793;28;20270;-80
2021/11/13 02:45:17;;;;;;;85.13;40.13;;;4.50;99.90;;;;;;5023191;28;20242;-80
2021/11/13 02:47:50;;;;;;;77.38;40.15;;;4.70;99.90;;;;;;5005864;28;20202;-81
2021/11/13 02:50:18;;;;;;;74.55;40.80;;;4.60;99.90;;;;;;5005634;28;20539;-82
2021/11/13 02:52:50;;;;;;;82.03;38.42;;;4.60;99.90;;;;;;5023245;28;20319;-83
2021/11/13 02:55:18;;;;;;;72.00;37.42;;;4.50;99.90;;;;;;4998634;28;20250;-83
2021/11/13 02:57:45;;;;;;;66.00;35.13;;;4.50;99.90;;;;;;5023378;28;20202;-82
2021/11/13 03:00:15;;;;;;;63.90;35.97;;;4.60;99.90;;;;;;5020393;28;20344;-84
2021/11/13 03:02:43;;;;;;;68.13;35.17;;;4.60;99.90;;;;;;5022315;28;20203;-82
2021/11/13 03:05:31;;;;;;;76.35;39.53;;;4.60;99.90;;;;;;5015599;28;20215;-81
2021/11/13 03:08:02;;;;;;;77.45;36.55;;;4.70;99.90;;;;;;5022333;28;20543;-81
2021/11/13 03:10:32;;;;;;;79.68;36.95;;;4.60;99.90;;;;;;5022660;28;20215;-81
2021/11/13 03:13:00;;;;;;;75.20;36.88;;;4.70;99.90;;;;;;5022039;28;20537;-81
2021/11/13 03:15:28;;;;;;;74.90;37.22;;;4.60;99.90;;;;;;5024168;28;20247;-81
2021/11/13 03:17:57;;;;;;;77.63;34.47;;;4.60;99.90;;;;;;5021749;28;20227;-83
2021/11/13 03:20:28;;;;;;;71.00;37.03;;;4.60;99.90;;;;;;5022334;28;20198;-83
2021/11/13 03:22:58;;;;;;;73.95;37.95;;;4.50;99.90;;;;;;5022838;28;20207;-81
2021/11/13 03:25:32;;;;;;;67.68;36.42;;;4.50;99.90;;;;;;5023828;28;20213;-81
2021/11/13 03:28:04;;;;;;;90.65;40.58;;;4.40;99.90;;;;;;5006559;28;20207;-81
2021/11/13 03:30:32;;;;;;;86.47;39.25;;;4.40;99.90;;;;;;5004957;28;20206;-82
2021/11/13 03:33:00;;;;;;;79.70;38.25;;;4.40;99.90;;;;;;5005678;28;20548;-81
2021/11/13 03:35:28;;;;;;;76.63;38.78;;;4.50;99.90;;;;;;4999140;28;20253;-81
2021/11/13 03:38:01;;;;;;;98.93;41.80;;;4.40;99.90;;;;;;5022549;28;20636;-82
2021/11/13 03:40:28;;;;;;;75.32;39.22;;;4.50;99.90;;;;;;5022557;28;20215;-82
2021/11/13 03:42:56;;;;;;;90.63;39.28;;;4.40;99.90;;;;;;5023487;28;20513;-81
2021/11/13 03:45:23;;;;;;;78.43;41.00;;;4.40;99.90;;;;;;5004890;28;20204;-81
2021/11/13 03:47:50;;;;;;;74.95;38.72;;;4.50;99.90;;;;;;5022086;28;20215;-82
2021/11/13 03:50:18;;;;;;;79.13;39.97;;;4.50;99.90;;;;;;5021434;28;20242;-84
2021/11/13 03:52:45;;;;;;;86.18;39.08;;;4.50;99.90;;;;;;5021361;28;20280;-81
2021/11/13 03:55:13;;;;;;;71.63;38.88;;;4.60;99.90;;;;;;5021148;28;20366;-82
2021/11/13 03:57:40;;;;;;;86.40;41.17;;;4.50;99.90;;;;;;5004535;28;20269;-81
2021/11/13 04:00:09;;;;;;;82.93;42.13;;;4.40;99.90;;;;;;5003894;28;20203;-81
2021/11/13 04:02:36;;;;;;;76.90;39.92;;;4.30;99.90;;;;;;5021329;28;20252;-83
2021/11/13 04:05:04;;;;;;;83.32;42.60;;;4.30;99.90;;;;;;5020984;28;20252;-82
2021/11/13 04:07:31;;;;;;;81.03;41.80;;;4.20;99.90;;;;;;5018492;28;20203;-82
2021/11/13 04:09:59;;;;;;;95.05;41.63;;;4.20;99.90;;;;;;5018560;28;20205;-81
2021/11/13 04:12:26;;;;;;;88.80;41.70;;;4.20;99.90;;;;;;5003505;28;20222;-81
2021/11/13 04:14:54;;;;;;;73.60;39.50;;;4.10;99.90;;;;;;5021259;28;20515;-80
2021/11/13 04:17:21;;;;;;;90.72;46.50;;;4.00;99.90;;;;;;5018977;28;20626;-81
2021/11/13 04:19:48;;;;;;;89.15;41.33;;;4.10;99.90;;;;;;5021721;28;20201;-81
2021/11/13 04:22:15;;;;;;;89.68;42.53;;;4.10;99.90;;;;;;5022415;28;20259;-84
2021/11/13 04:24:43;;;;;;;91.72;43.47;;;4.10;99.90;;;;;;5004987;28;20203;-82
2021/11/13 04:27:10;;;;;;;92.50;44.22;;;4.10;99.90;;;;;;5004804;28;20218;-81
2021/11/13 04:29:38;;;;;;;98.00;47.15;;;4.20;99.90;;;;;;5021683;28;20633;-82
2021/11/13 04:32:05;;;;;;;98.45;44.25;;;4.10;99.90;;;;;;5014409;28;20646;-82
2021/11/13 04:34:44;;;;;;;83.68;41.75;;;4.10;99.90;;;;;;5004964;28;20210;-82
2021/11/13 04:37:16;;;;;;;92.88;44.78;;;4.10;99.90;;;;;;5021458;28;20255;-83
2021/11/13 04:39:45;;;;;;;85.93;45.20;;;4.10;99.90;;;;;;5021480;28;20209;-81
2021/11/13 04:42:13;;;;;;;94.03;47.72;;;4.10;99.90;;;;;;5004205;28;20214;-82
2021/11/13 04:44:41;;;;;;;97.97;44.00;;;4.10;99.90;;;;;;5021603;28;20242;-82
2021/11/13 04:47:09;;;;;;;81.38;44.47;;;4.10;99.90;;;;;;5004210;28;20209;-80
2021/11/13 04:49:36;;;;;;;84.10;41.28;;;4.20;99.90;;;;;;5005905;28;20503;-82
2021/11/13 04:52:06;;;;;;;90.50;44.45;;;4.30;99.90;;;;;;5004282;28;20428;-82
2021/11/13 04:54:35;;;;;;;87.95;38.83;;;4.30;99.90;;;;;;5021501;28;20214;-82
2021/11/13 04:57:03;;;;;;;105.72;45.22;;;4.40;99.90;;;;;;5021524;28;20248;-82
2021/11/13 04:59:31;;;;;;;78.63;37.85;;;4.20;99.90;;;;;;5021351;28;20252;-81
2021/11/13 05:01:58;;;;;;;94.30;42.13;;;4.30;99.90;;;;;;5024233;28;20434;-82
2021/11/13 05:04:26;;;;;;;90.78;45.13;;;4.30;99.90;;;;;;5024644;28;20209;-82
2021/11/13 05:06:53;;;;;;;88.18;43.35;;;4.30;99.90;;;;;;5024395;28;20220;-82
2021/11/13 05:09:21;;;;;;;85.57;40.58;;;4.30;99.90;;;;;;5017853;28;20353;-82
2021/11/13 05:11:48;;;;;;;86.15;39.40;;;4.30;99.90;;;;;;5006776;28;20273;-81
2021/11/13 05:14:15;;;;;;;102.65;42.70;;;4.40;99.90;;;;;;5023700;28;20199;-81
2021/11/13 05:16:42;;;;;;;87.78;40.85;;;4.40;99.90;;;;;;5006700;28;20202;-81
2021/11/13 05:19:09;;;;;;;76.20;38.35;;;4.50;99.90;;;;;;5023340;28;20242;-82
2021/11/13 05:21:37;;;;;;;88.57;41.08;;;4.60;99.90;;;;;;5024019;28;20210;-82
2021/11/13 05:24:05;;;;;;;66.53;36.15;;;4.60;99.90;;;;;;5024276;28;20206;-83
2021/11/13 05:26:33;;;;;;;82.03;38.92;;;4.70;99.90;;;;;;5024286;28;20213;-81
2021/11/13 05:29:01;;;;;;;78.60;38.63;;;4.80;99.90;;;;;;5024708;28;20232;-83
2021/11/13 05:31:29;;;;;;;79.75;37.78;;;5.00;99.90;;;;;;5024768;28;20215;-85
2021/11/13 05:33:56;;;;;;;78.50;37.30;;;4.90;99.90;;;;;;5023696;28;20203;-82
2021/11/13 05:36:24;;;;;;;75.45;36.08;;;4.80;99.90;;;;;;5007146;28;20199;-81
2021/11/13 05:38:51;;;;;;;81.43;40.50;;;4.90;99.90;;;;;;5007129;28;20212;-83
2021/11/13 05:41:18;;;;;;;75.43;37.67;;;4.80;99.90;;;;;;5025147;28;20201;-80
2021/11/13 05:43:54;;;;;;;79.78;35.00;;;4.70;99.90;;;;;;5010440;28;20227;-81
2021/11/13 05:46:21;;;;;;;75.72;39.55;;;4.70;99.90;;;;;;5010080;28;20221;-81
2021/11/13 05:48:48;;;;;;;73.78;37.65;;;4.90;99.90;;;;;;5028909;28;20206;-81
2021/11/13 05:51:16;;;;;;;77.82;39.30;;;5.00;99.90;;;;;;5025290;28;20493;-83
2021/11/13 05:53:44;;;;;;;79.82;36.10;;;4.90;99.90;;;;;;5002722;28;20529;-84
2021/11/13 05:56:12;;;;;;;74.43;41.53;;;4.80;99.90;;;;;;5024276;28;20206;-82
2021/11/13 05:58:57;;;;;;;80.57;42.42;;;4.60;99.90;;;;;;5005720;28;20419;-82
2021/11/13 06:01:25;;;;;;;85.93;40.47;;;4.60;99.90;;;;;;5006430;28;20198;-82
2021/11/13 06:03:52;;;;;;;81.53;40.72;;;4.80;99.90;;;;;;5023421;28;20199;-81
2021/11/13 06:06:20;;;;;;;84.97;37.67;;;4.60;99.90;;;;;;4998410;28;20267;-81
2021/11/13 06:08:47;;;;;;;66.57;36.97;;;4.60;99.90;;;;;;5017418;28;20207;-82
2021/11/13 06:11:14;;;;;;;74.78;37.08;;;4.70;99.90;;;;;;5023027;28;20250;-82
2021/11/13 06:13:41;;;;;;;75.50;39.42;;;4.90;99.90;;;;;;5023491;28;20227;-83
2021/11/13 06:16:09;;;;;;;74.75;38.80;;;4.90;99.90;;;;;;5023100;28;20222;-83
2021/11/13 06:18:37;;;;;;;89.90;41.42;;;4.90;99.90;;;;;;5023693;28;20190;-82
2021/11/13 06:21:06;;;;;;;88.38;39.53;;;5.10;99.90;;;;;;5026112;28;20493;-82
2021/11/13 06:23:35;;;;;;;84.75;41.22;;;5.00;99.90;;;;;;5011627;28;20206;-81
2021/11/13 06:26:04;;;;;;;76.03;38.60;;;5.10;99.90;;;;;;5027035;28;20442;-82
2021/11/13 06:28:32;;;;;;;82.60;40.40;;;5.00;99.90;;;;;;5029723;28;20210;-81
2021/11/13 06:31:00;;;;;;;82.50;36.38;;;5.10;99.90;;;;;;5009885;28;20270;-84
2021/11/13 06:33:28;;;;;;;88.28;38.63;;;5.20;99.90;;;;;;5024445;28;20231;-83
2021/11/13 06:35:56;;;;;;;69.43;34.67;;;5.20;99.90;;;;;;5008690;28;20244;-82
2021/11/13 06:38:23;;;;;;;74.75;35.45;;;5.10;99.90;;;;;;5023314;28;20205;-83
2021/11/13 06:40:51;;;;;;;61.00;34.35;;;5.20;99.90;;;;;;5007352;28;20203;-82
2021/11/13 06:43:18;;;;;;;59.20;33.47;;;5.20;99.90;;;;;;5008085;28;20204;-79
2021/11/13 06:45:45;;;;;;;74.43;36.95;;;5.30;99.90;;;;;;5024893;28;20255;-83
2021/11/13 06:48:16;;;;;;;75.00;38.65;;;5.30;99.90;;;;;;5012354;28;20364;-81
2021/11/13 06:50:46;;;;;;;88.10;40.47;;;5.30;99.90;;;;;;5014586;28;20451;-81
2021/11/13 06:53:14;;;;;;;79.10;36.85;;;5.50;99.90;;;;;;5024557;28;20276;-80
2021/11/13 06:55:41;;;;;;;64.47;34.33;;;5.80;99.90;;;;;;5017806;28;20227;-82
2021/11/13 06:58:08;;;;;;;75.93;35.88;;;5.80;99.90;;;;;;5018578;28;20478;-83
2021/11/13 07:00:35;;;;;;;66.90;35.15;;;6.00;99.90;;;;;;4994178;28;20203;-83
2021/11/13 07:03:03;;;;;;;78.93;37.00;;;6.10;99.90;;;;;;5013721;28;20220;-82
2021/11/13 07:05:31;;;;;;;66.43;33.08;;;6.30;99.90;;;;;;5015934;28;20425;-83
2021/11/13 07:07:58;;;;;;;75.75;36.75;;;6.50;99.90;;;;;;5012419;28;20208;-81
2021/11/13 07:10:27;;;;;;;70.40;36.22;;;6.50;99.90;;;;;;5011268;28;20227;-83
2021/11/13 07:12:56;;;;;;;67.15;34.53;;;6.50;99.90;;;;;;5012369;28;20272;-83
2021/11/13 07:15:31;;;;;;;63.67;32.40;;;6.60;99.90;;;;;;5008493;28;20205;-83
2021/11/13 07:18:01;;;;;;;69.43;33.45;;;6.80;99.90;;;;;;5019670;28;20437;-82
2021/11/13 07:20:30;;;;;;;66.25;34.72;;;7.10;99.90;;;;;;5016972;28;20208;-83
2021/11/13 07:22:58;;;;;;;60.10;32.90;;;7.40;99.90;;;;;;5014427;28;20422;-80
2021/11/13 07:25:28;;;;;;;55.53;31.90;;;7.60;99.90;;;;;;5004871;28;20369;-81
2021/11/13 07:28:03;;;;;;;49.53;28.05;;;7.80;99.90;;;;;;5019199;28;20545;-80
2021/11/13 07:30:39;;;;;;;61.38;33.35;;;7.70;99.90;;;;;;5015297;28;20205;-81
2021/11/13 07:33:09;;;;;;;59.00;31.85;;;7.50;99.90;;;;;;5016229;28;20287;-82
2021/11/13 07:35:40;;;;;;;55.33;31.42;;;7.40;99.90;;;;;;5023424;28;20255;-81
2021/11/13 07:38:08;;;;;;;53.00;30.67;;;7.40;99.90;;;;;;5003007;28;20197;-81
2021/11/13 07:40:36;;;;;;;59.83;31.52;;;7.50;99.90;;;;;;5004055;28;20215;-83
2021/11/13 07:43:03;;;;;;;53.17;32.50;;;7.60;99.90;;;;;;5000853;28;20244;-84
2021/11/13 07:45:33;;;;;;;57.75;29.20;;;7.50;99.90;;;;;;5017491;28;20204;-80
2021/11/13 07:48:04;;;;;;;53.33;32.85;;;7.40;99.90;;;;;;5023122;28;20216;-82
2021/11/13 07:50:34;;;;;;;56.25;31.15;;;7.40;99.90;;;;;;5010022;28;20205;-83
2021/11/13 07:53:06;;;;;;;67.82;35.08;;;7.60;99.90;;;;;;5021404;28;20240;-82
2021/11/13 07:55:34;;;;;;;54.45;31.85;;;7.50;99.90;;;;;;5000438;28;20208;-83
2021/11/13 07:58:07;;;;;;;48.83;31.88;;;7.50;99.90;;;;;;4994084;28;20209;-82
2021/11/13 08:00:35;;;;;;;67.82;33.25;;;7.60;99.90;;;;;;5016881;28;20204;-82
2021/11/13 08:03:03;;;;;;;59.45;31.52;;;7.40;99.90;;;;;;5026562;28;20205;-82
2021/11/13 08:05:31;;;;;;;61.10;32.38;;;7.40;99.90;;;;;;5006247;28;20280;-83
2021/11/13 08:07:59;;;;;;;57.22;30.63;;;7.40;99.90;;;;;;5019564;28;20412;-80
2021/11/13 08:10:26;;;;;;;57.75;31.77;;;7.30;99.90;;;;;;5022439;28;20220;-83
2021/11/13 08:12:55;;;;;;;62.63;30.80;;;7.20;99.90;;;;;;5021525;28;20434;-82
2021/11/13 08:15:22;;;;;;;60.90;29.77;;;7.00;99.90;;;;;;5024521;28;20220;-82
2021/11/13 08:17:49;;;;;;;55.90;32.00;;;6.90;99.90;;;;;;4998350;28;20263;-83
2021/11/13 08:20:16;;;;;;;49.03;28.85;;;6.80;99.90;;;;;;5023866;28;20219;-82
2021/11/13 08:22:44;;;;;;;55.30;31.50;;;7.00;99.90;;;;;;5019129;28;20200;-82
2021/11/13 08:25:13;;;;;;;60.33;30.15;;;7.00;99.90;;;;;;5022023;28;20485;-82
2021/11/13 08:27:43;;;;;;;48.58;27.80;;;7.20;99.90;;;;;;5017742;28;20211;-82
2021/11/13 08:30:11;;;;;;;60.40;33.35;;;7.20;99.90;;;;;;5015714;28;20424;-81
2021/11/13 08:32:40;;;;;;;57.50;29.85;;;7.30;99.90;;;;;;5002353;28;20236;-82
2021/11/13 08:35:10;;;;;;;65.90;33.53;;;7.20;99.90;;;;;;5011633;28;20197;-84
2021/11/13 08:37:39;;;;;;;57.17;31.42;;;7.10;99.90;;;;;;5024088;28;20211;-82
2021/11/13 08:40:09;;;;;;;47.92;28.08;;;7.10;99.90;;;;;;5023178;28;20205;-82
2021/11/13 08:42:37;;;;;;;52.08;27.15;;;7.30;99.90;;;;;;5024290;28;20283;-84
2021/11/13 08:45:07;;;;;;;55.75;32.97;;;7.40;99.90;;;;;;5017783;28;20208;-81
2021/11/13 08:47:37;;;;;;;57.63;33.88;;;7.60;99.90;;;;;;5018367;28;20208;-82
2021/11/13 08:50:11;;;;;;;59.75;32.03;;;7.80;99.90;;;;;;5024870;28;20197;-81
2021/11/13 08:56:25;;;;;;;56.78;29.55;;;7.70;99.90;;;;;;5022133;28;20235;-82
2021/11/13 08:58:54;;;;;;;53.58;29.13;;;7.90;99.90;;;;;;5015238;28;20202;-81
2021/11/13 09:01:29;;;;;;;45.00;27.50;;;8.10;99.90;;;;;;5018855;28;20201;-81
2021/11/13 09:03:57;;;;;;;52.92;30.90;;;8.30;99.90;;;;;;5008790;28;20199;-82
2021/11/13 09:06:30;;;;;;;48.97;29.88;;;8.40;99.90;;;;;;5004653;28;20236;-84
2021/11/13 09:09:02;;;;;;;53.17;30.63;;;8.50;99.90;;;;;;5010538;28;20212;-83
2021/11/13 09:11:32;;;;;;;52.53;28.45;;;8.90;99.90;;;;;;5004319;28;20196;-82
2021/11/13 09:14:01;;;;;;;53.53;29.70;;;9.20;99.90;;;;;;5030147;28;20221;-83
2021/11/13 09:16:29;;;;;;;46.75;28.33;;;9.50;99.90;;;;;;5008439;28;20193;-84
2021/11/13 09:18:56;;;;;;;46.75;28.88;;;9.60;99.90;;;;;;5017522;28;20528;-83
2021/11/13 09:21:23;;;;;;;46.92;26.50;;;9.70;99.90;;;;;;5004099;28;20429;-82
2021/11/13 09:23:51;;;;;;;45.38;26.30;;;9.90;99.90;;;;;;5003113;28;20202;-82
2021/11/13 09:26:18;;;;;;;44.00;26.35;;;9.70;99.90;;;;;;5017798;28;20291;-81
2021/11/13 09:28:46;;;;;;;39.50;25.30;;;9.70;99.90;;;;;;5012821;28;20202;-83
2021/11/13 09:31:14;;;;;;;46.47;25.92;;;9.60;99.90;;;;;;4997147;28;20441;-83
2021/11/13 09:33:42;;;;;;;57.72;28.38;;;9.40;99.90;;;;;;4990479;28;20450;-83
2021/11/13 09:36:09;;;;;;;53.88;27.20;;;9.40;99.90;;;;;;5009489;28;20205;-84
2021/11/13 09:38:43;;;;;;;49.03;27.02;;;9.30;99.90;;;;;;5004596;28;20211;-83
2021/11/13 09:41:11;;;;;;;44.25;27.05;;;9.50;99.90;;;;;;4997767;28;20267;-83
2021/11/13 09:43:39;;;;;;;42.90;26.48;;;9.80;99.90;;;;;;5013169;28;20506;-82
2021/11/13 09:46:10;;;;;;;48.05;26.20;;;9.90;99.90;;;;;;5010939;28;20199;-82
2021/11/13 09:48:40;;;;;;;47.63;26.52;;;9.80;99.90;;;;;;5012300;28;20506;-82
2021/11/13 09:51:09;;;;;;;42.33;25.38;;;9.70;99.90;;;;;;5013378;28;20317;-82
2021/11/13 09:53:38;;;;;;;40.70;27.83;;;10.00;99.90;;;;;;5002409;28;20254;-83
2021/11/13 09:56:06;;;;;;;39.45;24.63;;;10.30;99.90;;;;;;5018619;28;20278;-82
2021/11/13 09:58:35;;;;;;;40.95;25.60;;;10.40;99.90;;;;;;5016148;28;20223;-82
2021/11/13 10:01:03;;;;;;;40.03;24.45;;;10.30;99.90;;;;;;5015878;28;20224;-82
2021/11/13 10:03:31;;;;;;;41.65;26.88;;;10.10;99.90;;;;;;5016217;28;20217;-83
2021/11/13 10:06:03;;;;;;;35.03;22.38;;;10.10;99.90;;;;;;5015994;28;20201;-82
2021/11/13 10:08:30;;;;;;;36.47;22.98;;;9.90;99.90;;;;;;5015730;28;20210;-81
2021/11/13 10:11:04;;;;;;;40.17;24.90;;;9.90;99.90;;;;;;5014469;28;20203;-82
2021/11/13 10:13:42;;;;;;;36.75;24.02;;;9.60;99.90;;;;;;5017508;28;20293;-81
2021/11/13 10:16:14;;;;;;;35.33;21.58;;;9.30;99.90;;;;;;5013218;28;20256;-82
2021/11/13 10:18:48;;;;;;;44.90;20.77;;;9.10;99.90;;;;;;5018348;28;20510;-82
2021/11/13 10:21:18;;;;;;;37.90;22.38;;;9.10;99.90;;;;;;5016998;28;20391;-82
2021/11/13 10:23:53;;;;;;;34.28;20.55;;;9.10;99.90;;;;;;5018673;28;20209;-84
2021/11/13 10:26:30;;;;;;;33.05;21.50;;;9.10;99.90;;;;;;5002997;28;20243;-81
2021/11/13 10:29:01;;;;;;;43.97;22.70;;;9.20;99.90;;;;;;5001552;28;20211;-82
2021/11/13 10:31:37;;;;;;;37.10;24.42;;;9.30;99.90;;;;;;5001850;28;20332;-82
2021/11/13 10:34:12;;;;;;;36.35;22.55;;;9.40;99.90;;;;;;5021338;28;20222;-82
2021/11/13 10:36:43;;;;;;;33.38;20.55;;;9.50;99.90;;;;;;5002250;28;20200;-82
2021/11/13 10:39:23;;;;;;;37.58;23.05;;;9.60;99.90;;;;;;5013719;28;20205;-81
2021/11/13 10:41:53;;;;;;;35.15;22.30;;;9.70;99.90;;;;;;5014052;28;20237;-81
2021/11/13 10:44:28;;;;;;;33.95;21.77;;;9.80;99.90;;;;;;5016771;28;20205;-83
2021/11/13 10:47:08;;;;;;;31.00;19.92;;;9.80;99.90;;;;;;5020274;28;20210;-83
2021/11/13 10:49:35;;;;;;;40.90;20.92;;;9.70;99.90;;;;;;4999967;28;20427;-81
2021/11/13 10:52:06;;;;;;;37.78;22.98;;;9.80;99.90;;;;;;5020890;28;20202;-83
2021/11/13 10:54:34;;;;;;;36.45;22.50;;;9.90;99.90;;;;;;5013739;28;20283;-82
2021/11/13 10:57:04;;;;;;;30.95;20.88;;;10.00;99.90;;;;;;5018195;28;20199;-82
2021/11/13 10:59:43;;;;;;;29.00;19.20;;;10.10;99.90;;;;;;5019837;28;20431;-83
2021/11/13 11:02:12;;;;;;;37.95;21.77;;;10.30;99.90;;;;;;5022859;28;20284;-83
2021/11/13 11:04:43;;;;;;;35.65;20.02;;;10.40;99.90;;;;;;5020610;28;20242;-84
2021/11/13 11:07:15;;;;;;;34.45;20.05;;;10.50;99.90;;;;;;5024914;28;20202;-82
2021/11/13 11:09:44;;;;;;;25.50;16.63;;;10.70;99.90;;;;;;5020668;28;20294;-82
2021/11/13 11:12:18;;;;;;;23.90;15.90;;;10.80;99.90;;;;;;5025775;28;20265;-83
2021/11/13 11:14:51;;;;;;;31.17;18.45;;;11.00;99.90;;;;;;5021216;28;20230;-83
2021/11/13 11:17:29;;;;;;;35.50;20.17;;;11.30;99.90;;;;;;5026396;28;20270;-82
2021/11/13 11:20:29;;;;;;;25.30;17.25;;;11.40;99.90;;;;;;5023617;28;20254;-81
2021/11/13 11:22:57;;;;;;;24.08;16.95;;;11.60;99.90;;;;;;4990939;28;20207;-82
2021/11/13 11:25:26;;;;;;;19.77;15.10;;;11.80;99.90;;;;;;5005458;28;20200;-83
2021/11/13 11:27:57;;;;;;;23.08;15.98;;;11.90;99.90;;;;;;5018504;28;20225;-83
2021/11/13 11:30:25;;;;;;;23.48;16.08;;;12.10;99.90;;;;;;5014713;28;20499;-83
2021/11/13 11:32:55;;;;;;;20.15;15.18;;;12.20;99.90;;;;;;4996480;28;20212;-82
2021/11/13 11:35:26;;;;;;;22.15;14.90;;;12.30;99.90;;;;;;5021221;28;20200;-83
2021/11/13 11:38:06;;;;;;;20.67;14.77;;;12.30;99.90;;;;;;5012036;28;20204;-83
2021/11/13 11:40:40;;;;;;;25.30;15.35;;;12.30;99.90;;;;;;4995726;28;20276;-82
2021/11/13 11:43:09;;;;;;;18.00;13.63;;;12.20;99.90;;;;;;5013235;28;20204;-83
2021/11/13 11:45:42;;;;;;;20.33;14.13;;;12.20;99.90;;;;;;5015996;28;20236;-82
2021/11/13 11:48:12;;;;;;;22.85;13.95;;;12.30;99.90;;;;;;5013558;28;20351;-82
2021/11/13 11:50:40;;;;;;;20.80;14.68;;;12.30;99.90;;;;;;5020379;28;20204;-83
2021/11/13 11:53:11;;;;;;;18.35;13.60;;;12.10;99.90;;;;;;5002996;28;20235;-82
2021/11/13 11:55:44;;;;;;;21.30;15.23;;;11.80;99.90;;;;;;5017959;28;20367;-82
2021/11/13 11:58:16;;;;;;;27.58;16.33;;;11.50;99.90;;;;;;5016690;28;20265;-82
2021/11/13 12:00:44;;;;;;;22.98;15.50;;;11.60;99.90;;;;;;5005880;28;20227;-83
2021/11/13 12:03:35;;;;;;;23.45;15.60;;;11.60;99.90;;;;;;5016677;28;20271;-84
2021/11/13 12:06:03;;;;;;;21.73;14.40;;;11.40;99.90;;;;;;4997202;28;20264;-83
2021/11/13 12:08:33;;;;;;;18.00;14.23;;;11.40;99.90;;;;;;5020196;28;20219;-82
2021/11/13 12:11:32;;;;;;;19.77;15.45;;;11.10;99.90;;;;;;5022117;28;20214;-82
2021/11/13 12:14:26;;;;;;;17.33;12.80;;;11.00;99.90;;;;;;5016404;28;20973;-83
2021/11/13 12:17:14;;;;;;;18.70;12.18;;;11.10;99.90;;;;;;5017014;28;20226;-82
2021/11/13 12:20:02;;;;;;;19.45;14.18;;;11.00;99.90;;;;;;5017810;28;20394;-82
2021/11/13 12:22:34;;;;;;;22.63;13.82;;;11.00;99.90;;;;;;4999977;28;20326;-82
2021/11/13 12:25:16;;;;;;;25.17;17.80;;;10.90;99.90;;;;;;5001015;28;20203;-83
2021/11/13 12:28:07;;;;;;;30.17;16.73;;;10.90;99.90;;;;;;5002923;28;20435;-82
2021/11/13 12:31:09;;;;;;;21.73;15.50;;;11.00;99.90;;;;;;5003776;28;20204;-82
2021/11/13 12:33:36;;;;;;;33.90;18.08;;;11.10;99.90;;;;;;4997280;28;20284;-83
2021/11/13 12:36:23;;;;;;;26.85;17.30;;;11.20;99.90;;;;;;5019666;28;20211;-82
2021/11/13 12:38:56;;;;;;;24.60;15.73;;;11.20;99.90;;;;;;5006284;28;20405;-83
2021/11/13 12:41:26;;;;;;;24.60;15.27;;;11.40;99.90;;;;;;5004177;28;20224;-83
2021/11/13 12:44:00;;;;;;;32.22;16.00;;;11.40;99.90;;;;;;5022006;28;20203;-84
2021/11/13 12:46:50;;;;;;;33.65;18.55;;;11.60;99.90;;;;;;5019351;28;20275;-83
2021/11/13 12:49:26;;;;;;;23.60;15.15;;;11.60;99.90;;;;;;5015386;28;20235;-82
2021/11/13 12:51:54;;;;;;;22.85;17.95;;;11.70;99.90;;;;;;5016315;28;20221;-83
2021/11/13 12:54:28;;;;;;;22.48;15.90;;;11.60;99.90;;;;;;5016386;28;20598;-84